Aeroporto :
LOGIN :

Iscrizione | Disclaimer

   EN    FR    IT 

 










Sommario :    VFR   VFR Marginale   IFR   IFR Intensivo   IFR Molto Intensivo
Visibilità : 
Base nubi : 
>= 8 km
>= 3000ft
5 / 8 km
1000 / 3000 ft
1500m / 5 km
500 / 1000 ft
800 / 1500m
200 / 500 ft
< 800m
< 200 ft
Simboli :   Temporali  Nebbia  Neve Forte  Precipitazioni Forti  Vento > 20 kt
SIGMETs :   Varie  Temporali  Ghiacco  Turbolenza  Onda orograficha  Ceneri Vulcaniche






- Altitudine del aeroporto : 157 ft


LESB - Son Bonet

ULTIMO METAR :
  • 311930Z AUTO 01002KT 9999 SCT018/// BKN020/// 16/14 Q1025

METARs OBSOLETI :
  • 311900Z AUTO 01002KT 9999 BKN017/// 17/14 Q1025
  • 311830Z AUTO VRB01KT 9999 FEW018/// 17/14 Q1025
  • 311800Z AUTO 21002KT CAVOK 17/14 Q1025
  • 311730Z AUTO 20004KT CAVOK 18/15 Q1024
  • 311700Z AUTO 20005KT CAVOK 18/15 Q1024

TAF N/A



MetMap, La meteo Aeronautica in un colpo d'occhio ! - Copyright ORBIFLY Dicembre 2007 - Disclaimer

ORBIFLY MET'MAP TEAM :

Programmazione e sviluppo : Alexandra Zaïnal
Concezione : Baudouin d'Aumeries
Aiuto per la programmazione : Marc-Olivier Méhu
Supporto tecnico e logistico : Manuel Goepfert
Aiuto per la traduzione : Arnaldo La Scala

Contatto : metmap@orbifly.com




FONTI E CREDITI :

   NOAA